createdAt,value
2019-05-01T00:02:01.967Z,33.4
2019-05-01T00:12:01.182Z,33.3
2019-05-01T00:22:00.400Z,33.3
2019-05-01T00:31:59.608Z,33.3
2019-05-01T00:41:58.831Z,32.8
2019-05-01T00:51:58.044Z,32.9
2019-05-01T01:01:57.261Z,32.9
2019-05-01T01:11:56.467Z,32.9
2019-05-01T01:21:55.739Z,32.9
2019-05-01T01:31:54.903Z,32.9
2019-05-01T01:41:54.112Z,32.9
2019-05-01T01:51:53.327Z,32.9
2019-05-01T02:01:52.548Z,32.9
2019-05-01T02:11:51.762Z,32.9
2019-05-01T02:21:50.970Z,32.9
2019-05-01T02:31:50.182Z,32.9
2019-05-01T02:41:49.408Z,32.9
2019-05-01T02:51:48.623Z,32.9
2019-05-01T03:01:48.242Z,32.9
2019-05-01T03:11:47.096Z,32.9
2019-05-01T03:21:46.251Z,32.9
2019-05-01T03:32:12.822Z,32.9
2019-05-01T03:41:44.688Z,32.9
2019-05-01T03:51:43.894Z,32.8
2019-05-01T04:01:43.110Z,32.8
2019-05-01T04:11:42.322Z,32.8
2019-05-01T04:21:41.536Z,32.8
2019-05-01T04:31:40.762Z,32.8
2019-05-01T04:41:39.958Z,32.8
2019-05-01T04:51:39.178Z,32.8
2019-05-01T05:01:38.385Z,32.8
2019-05-01T05:11:37.595Z,31.5
2019-05-01T05:21:36.802Z,31.5
2019-05-01T05:31:36.067Z,31.6
2019-05-01T05:41:35.238Z,31.9
2019-05-01T05:51:34.452Z,31.9
2019-05-01T06:01:33.670Z,28.1
2019-05-01T06:11:33.869Z,26.8
2019-05-01T06:21:34.588Z,27.6
2019-05-01T06:31:31.308Z,28.1
2019-05-01T06:41:33.396Z,28.7
2019-05-01T06:51:29.738Z,29.6
2019-05-01T07:01:28.959Z,30.4
2019-05-01T07:11:28.204Z,31.1
2019-05-01T07:21:30.510Z,31.8
2019-05-01T07:31:30.883Z,32.6
2019-05-01T07:41:25.872Z,33.1
2019-05-01T07:51:25.087Z,33.4
2019-05-01T08:01:24.255Z,34.1
2019-05-01T08:11:23.467Z,34.8
2019-05-01T08:21:25.994Z,35.6
2019-05-01T08:31:22.929Z,36.4
2019-05-01T08:41:21.113Z,37.1
2019-05-01T08:51:20.333Z,37.8
2019-05-01T09:01:19.546Z,38.3
2019-05-01T09:11:18.764Z,38.4
2019-05-01T09:21:17.974Z,38.5
2019-05-01T09:31:17.194Z,38.7
2019-05-01T09:41:16.407Z,38.8
2019-05-01T09:51:15.674Z,38.8
2019-05-01T10:01:14.841Z,38.8
2019-05-01T10:11:14.107Z,38.9
2019-05-01T10:21:13.273Z,39
2019-05-01T10:31:13.212Z,39.1
2019-05-01T10:41:11.718Z,39.3
2019-05-01T10:51:10.973Z,39.4
2019-05-01T11:01:10.139Z,39.5
2019-05-01T11:11:09.362Z,39.6
2019-05-01T11:21:08.622Z,39.9
2019-05-01T11:31:07.787Z,40.1
2019-05-01T11:41:07.004Z,40.5
2019-05-01T11:51:06.277Z,40.8
2019-05-01T12:01:05.494Z,41
2019-05-01T12:11:04.660Z,41.3
2019-05-01T12:21:03.868Z,41.4
2019-05-01T12:31:03.083Z,41.6
2019-05-01T12:41:02.304Z,41.8
2019-05-01T12:51:01.522Z,41.9
2019-05-01T13:01:00.731Z,42
2019-05-01T13:10:59.939Z,42.1
2019-05-01T13:20:59.160Z,42.3
2019-05-01T13:30:58.369Z,42.5
2019-05-01T13:40:57.580Z,42.7
2019-05-01T13:50:56.793Z,42.9
2019-05-01T14:00:56.015Z,43.1
2019-05-01T14:10:55.222Z,43.3
2019-05-01T14:20:54.443Z,43.3
2019-05-01T14:30:53.654Z,43.2
2019-05-01T14:40:52.877Z,43.1
2019-05-01T14:50:52.091Z,42.8
2019-05-01T15:00:51.311Z,42.6
2019-05-01T15:10:50.534Z,42.1
2019-05-01T15:20:49.751Z,41.1
2019-05-01T15:30:48.975Z,40.6
2019-05-01T15:40:48.194Z,39.9
2019-05-01T15:50:47.416Z,39
2019-05-01T16:00:46.645Z,38.9
2019-05-01T16:10:45.863Z,38.9
2019-05-01T16:20:45.088Z,39
2019-05-01T16:30:44.300Z,38.9
2019-05-01T16:40:43.515Z,38.9
2019-05-01T16:50:42.732Z,37.9
2019-05-01T17:00:41.957Z,35.9
2019-05-01T17:10:41.213Z,34.5
2019-05-01T17:20:40.439Z,34.4
2019-05-01T17:30:39.604Z,34.1
2019-05-01T17:40:38.823Z,33.9
2019-05-01T17:50:38.043Z,30.9
2019-05-01T18:00:37.258Z,27.4
2019-05-01T18:10:38.511Z,27.3
2019-05-01T18:20:35.690Z,23.6
2019-05-01T18:30:34.931Z,22.7
2019-05-01T18:40:34.180Z,22.7
2019-05-01T18:50:33.347Z,22.3
2019-05-01T19:00:32.609Z,19.2
2019-05-01T19:10:31.819Z,18.6
2019-05-01T19:20:30.995Z,18.6
2019-05-01T19:30:30.224Z,18.4
2019-05-01T19:40:30.470Z,18.4
2019-05-01T19:50:28.701Z,17.7
2019-05-01T20:00:27.865Z,17.9
2019-05-01T20:10:27.080Z,17.9
2019-05-01T20:20:26.303Z,17.9
2019-05-01T20:30:25.520Z,17.9
2019-05-01T20:40:24.788Z,17.9
2019-05-01T20:50:23.954Z,18
2019-05-01T21:00:23.174Z,18
2019-05-01T21:10:24.731Z,18
2019-05-01T21:20:23.403Z,18.1
2019-05-01T21:30:20.817Z,18.1
2019-05-01T21:40:20.031Z,18.1
2019-05-01T21:50:22.688Z,18.1
2019-05-01T22:00:19.973Z,18.2
2019-05-01T22:10:21.488Z,18.2
2019-05-01T22:20:16.896Z,18.2
2019-05-01T22:30:16.118Z,18.3
2019-05-01T22:40:15.327Z,18.3
2019-05-01T22:50:14.542Z,18.3
2019-05-01T23:00:13.765Z,18.3
2019-05-01T23:10:13.031Z,18.4
2019-05-01T23:20:12.188Z,18.4
2019-05-01T23:30:11.407Z,18.4
2019-05-01T23:40:10.842Z,18.4
2019-05-01T23:50:09.843Z,18.4
